Time;durP1;ratioP1;P1;durP2;ratioP2;P2;SDS_P1;SDS_P2;PMS_P1;PMS_P2;Temp;Humidity;BMP_temperature;BMP_pressure;BME280_temperature;BME280_humidity;BME280_pressure;Samples;Min_cycle;Max_cycle;Signal;HPM_P1;HPM_P2
2021/07/08 00:01:06;;;;;;;12.50;8.95;;;;;;;;;;5035242;28;20147;-47
2021/07/08 00:03:33;;;;;;;14.95;9.05;;;;;;;;;;5034696;28;20053;-48
2021/07/08 00:05:59;;;;;;;13.85;8.77;;;;;;;;;;5045548;28;20151;-47
2021/07/08 00:08:25;;;;;;;11.50;8.48;;;;;;;;;;5044089;28;20135;-49
2021/07/08 00:10:54;;;;;;;15.73;8.73;;;;;;;;;;5045421;28;20061;-47
2021/07/08 00:13:22;;;;;;;16.80;9.05;;;;;;;;;;5056918;28;20049;-47
2021/07/08 00:15:49;;;;;;;14.32;8.98;;;;;;;;;;5058192;28;20044;-46
2021/07/08 00:18:17;;;;;;;13.07;9.40;;;;;;;;;;5065343;28;20453;-46
2021/07/08 00:20:46;;;;;;;13.45;9.55;;;;;;;;;;5062333;28;20080;-46
2021/07/08 00:23:16;;;;;;;15.98;9.52;;;;;;;;;;5065391;28;20040;-48
2021/07/08 00:25:43;;;;;;;14.80;9.85;;;;;;;;;;5052223;28;20092;-48
2021/07/08 00:28:12;;;;;;;14.23;10.38;;;;;;;;;;5062785;28;20052;-53
2021/07/08 00:30:39;;;;;;;17.25;10.50;;;;;;;;;;5064599;28;20056;-47
2021/07/08 00:33:06;;;;;;;16.30;9.70;;;;;;;;;;5059502;28;20130;-48
2021/07/08 00:35:33;;;;;;;13.65;9.68;;;;;;;;;;5066154;28;20051;-48
2021/07/08 00:37:59;;;;;;;17.60;9.77;;;;;;;;;;5057444;28;20044;-47
2021/07/08 00:40:26;;;;;;;13.13;9.07;;;;;;;;;;5059044;28;20433;-45
2021/07/08 00:42:52;;;;;;;17.25;10.27;;;;;;;;;;5028313;28;20526;-47
2021/07/08 00:45:20;;;;;;;15.82;10.38;;;;;;;;;;5061315;28;20048;-48
2021/07/08 00:47:47;;;;;;;19.80;10.85;;;;;;;;;;5060972;28;20075;-49
2021/07/08 00:50:31;;;;;;;16.92;10.18;;;;;;;;;;5063193;28;20051;-46
2021/07/08 00:52:57;;;;;;;15.75;10.80;;;;;;;;;;5060549;28;20573;-46
2021/07/08 00:55:24;;;;;;;16.48;10.43;;;;;;;;;;5054307;28;20076;-46
2021/07/08 00:57:54;;;;;;;15.63;10.43;;;;;;;;;;5062214;28;20087;-45
2021/07/08 01:00:21;;;;;;;15.90;10.70;;;;;;;;;;5057917;28;20051;-46
2021/07/08 01:02:49;;;;;;;21.80;10.98;;;;;;;;;;5067084;28;20433;-47
2021/07/08 01:05:21;;;;;;;19.83;11.30;;;;;;;;;;5059791;28;20674;-48
2021/07/08 01:07:48;;;;;;;16.17;10.32;;;;;;;;;;5063490;28;20158;-47
2021/07/08 01:10:15;;;;;;;22.85;11.80;;;;;;;;;;5059768;28;20056;-49
2021/07/08 01:12:41;;;;;;;20.58;11.98;;;;;;;;;;5065978;28;20230;-47
2021/07/08 01:15:09;;;;;;;19.15;11.93;;;;;;;;;;5058451;28;20132;-47
2021/07/08 01:17:36;;;;;;;;;;;;;;;;;;5059448;28;20480;-46
2021/07/08 01:20:03;;;;;;;20.10;11.13;;;;;;;;;;5054386;28;20439;-46
2021/07/08 01:22:29;;;;;;;16.30;11.45;;;;;;;;;;5052221;28;20134;-46
2021/07/08 01:24:56;;;;;;;18.85;11.75;;;;;;;;;;5066407;28;20040;-47
2021/07/08 01:27:22;;;;;;;19.20;12.23;;;;;;;;;;5056909;28;20052;-46
2021/07/08 01:29:49;;;;;;;18.15;11.98;;;;;;;;;;5067459;28;20139;-47
2021/07/08 01:32:15;;;;;;;17.25;10.82;;;;;;;;;;5066491;28;20475;-46
2021/07/08 01:34:42;;;;;;;17.25;11.30;;;;;;;;;;5052882;28;20048;-47
2021/07/08 01:37:08;;;;;;;17.88;11.60;;;;;;;;;;5056796;28;20151;-48
2021/07/08 01:39:34;;;;;;;15.35;11.75;;;;;;;;;;5058566;28;20087;-45
2021/07/08 01:42:01;;;;;;;15.23;10.27;;;;;;;;;;5042238;28;20127;-46
2021/07/08 01:44:27;;;;;;;21.63;11.25;;;;;;;;;;5058566;28;20130;-47
2021/07/08 01:46:54;;;;;;;16.92;11.05;;;;;;;;;;5061514;28;20051;-47
2021/07/08 01:49:20;;;;;;;14.65;10.75;;;;;;;;;;5055279;28;20071;-46
2021/07/08 01:51:47;;;;;;;19.42;11.85;;;;;;;;;;5064208;28;20208;-46
2021/07/08 01:54:14;;;;;;;17.25;12.93;;;;;;;;;;5059886;28;20713;-47
2021/07/08 01:56:40;;;;;;;16.52;11.75;;;;;;;;;;5056271;28;20139;-48
2021/07/08 01:59:07;;;;;;;18.17;11.63;;;;;;;;;;5065396;28;20049;-46
2021/07/08 02:01:33;;;;;;;20.67;12.27;;;;;;;;;;5054247;28;20131;-47
2021/07/08 02:04:00;;;;;;;16.45;11.93;;;;;;;;;;5059832;28;20097;-47
2021/07/08 02:06:26;;;;;;;17.55;11.95;;;;;;;;;;5058737;28;20058;-48
2021/07/08 02:08:53;;;;;;;19.23;11.45;;;;;;;;;;5061404;28;20653;-46
2021/07/08 02:11:19;;;;;;;17.35;11.30;;;;;;;;;;5060109;28;20091;-47
2021/07/08 02:13:45;;;;;;;18.25;10.32;;;;;;;;;;5061810;28;20074;-46
2021/07/08 02:16:12;;;;;;;12.45;9.43;;;;;;;;;;5060064;28;20048;-47
2021/07/08 02:18:39;;;;;;;18.65;11.32;;;;;;;;;;5055178;28;20157;-50
2021/07/08 02:21:06;;;;;;;17.05;11.55;;;;;;;;;;5062251;28;20076;-46
2021/07/08 02:23:33;;;;;;;18.15;11.68;;;;;;;;;;5051825;28;20098;-47
2021/07/08 02:26:00;;;;;;;19.17;12.85;;;;;;;;;;5062106;28;20747;-46
2021/07/08 02:28:26;;;;;;;17.13;11.90;;;;;;;;;;5057097;28;20049;-48
2021/07/08 02:30:53;;;;;;;23.10;13.80;;;;;;;;;;5060569;28;20482;-48
2021/07/08 02:33:19;;;;;;;20.05;12.70;;;;;;;;;;5058463;28;20132;-48
2021/07/08 02:35:45;;;;;;;20.80;13.30;;;;;;;;;;5057647;28;20122;-48
2021/07/08 02:38:12;;;;;;;21.90;14.05;;;;;;;;;;5058118;28;20526;-47
2021/07/08 02:40:38;;;;;;;24.88;13.82;;;;;;;;;;5051165;28;20651;-47
2021/07/08 02:43:05;;;;;;;16.90;12.43;;;;;;;;;;5058310;28;20040;-48
2021/07/08 02:45:33;;;;;;;16.75;12.40;;;;;;;;;;5051833;28;20045;-48
2021/07/08 02:48:00;;;;;;;20.55;13.35;;;;;;;;;;5062753;28;20080;-48
2021/07/08 02:50:28;;;;;;;20.90;12.45;;;;;;;;;;5061915;28;20079;-47
2021/07/08 02:52:56;;;;;;;20.00;13.32;;;;;;;;;;5054556;28;20135;-47
2021/07/08 02:55:22;;;;;;;20.45;13.18;;;;;;;;;;5056603;28;20131;-47
2021/07/08 02:57:49;;;;;;;22.23;14.05;;;;;;;;;;5050750;28;20048;-47
2021/07/08 03:00:17;;;;;;;18.60;13.10;;;;;;;;;;5059442;28;20155;-48
2021/07/08 03:02:43;;;;;;;22.15;13.98;;;;;;;;;;5058084;28;20131;-47
2021/07/08 03:05:10;;;;;;;21.35;13.05;;;;;;;;;;5062334;28;20526;-47
2021/07/08 03:07:39;;;;;;;22.42;13.23;;;;;;;;;;5059619;28;20102;-47
2021/07/08 03:10:10;;;;;;;20.30;13.50;;;;;;;;;;5058725;28;20135;-47
2021/07/08 03:12:36;;;;;;;22.10;14.65;;;;;;;;;;5054258;28;20060;-47
2021/07/08 03:15:03;;;;;;;26.42;15.27;;;;;;;;;;5055142;28;20144;-47
2021/07/08 03:17:30;;;;;;;23.70;14.77;;;;;;;;;;5061345;28;20611;-47
2021/07/08 03:19:56;;;;;;;20.60;14.35;;;;;;;;;;5057516;28;20091;-48
2021/07/08 03:22:23;;;;;;;23.15;14.00;;;;;;;;;;5056437;28;20084;-47
2021/07/08 03:24:49;;;;;;;20.77;13.25;;;;;;;;;;5055468;28;20095;-47
2021/07/08 03:27:15;;;;;;;21.05;14.43;;;;;;;;;;5037788;28;20843;-47
2021/07/08 03:29:42;;;;;;;22.60;13.82;;;;;;;;;;5057238;28;20155;-47
2021/07/08 03:32:08;;;;;;;24.17;15.15;;;;;;;;;;5052808;28;20052;-47
2021/07/08 03:34:35;;;;;;;24.27;15.10;;;;;;;;;;5061117;28;20045;-47
2021/07/08 03:37:01;;;;;;;23.10;14.30;;;;;;;;;;5053172;28;20845;-47
2021/07/08 03:39:28;;;;;;;23.52;14.88;;;;;;;;;;5059936;28;20147;-48
2021/07/08 03:41:54;;;;;;;23.25;14.45;;;;;;;;;;5053013;28;20155;-47
2021/07/08 03:44:21;;;;;;;21.25;14.02;;;;;;;;;;5062972;28;20051;-48
2021/07/08 03:46:47;;;;;;;23.55;14.68;;;;;;;;;;5059235;28;20089;-47
2021/07/08 03:49:15;;;;;;;22.40;14.27;;;;;;;;;;5057873;28;20087;-47
2021/07/08 03:51:41;;;;;;;24.50;15.23;;;;;;;;;;5061893;28;20453;-46
2021/07/08 03:54:07;;;;;;;24.25;15.02;;;;;;;;;;5046952;28;20136;-47
2021/07/08 03:56:34;;;;;;;24.15;15.00;;;;;;;;;;5058880;28;20135;-48
2021/07/08 03:59:00;;;;;;;23.70;15.82;;;;;;;;;;5052015;28;20591;-47
2021/07/08 04:01:27;;;;;;;27.25;16.25;;;;;;;;;;5060288;28;20072;-48
2021/07/08 04:03:53;;;;;;;24.00;14.88;;;;;;;;;;5049898;28;20052;-48
2021/07/08 04:06:19;;;;;;;22.50;15.05;;;;;;;;;;5059790;28;21119;-49
2021/07/08 04:08:46;;;;;;;22.45;15.60;;;;;;;;;;5057144;28;20091;-48
2021/07/08 04:11:12;;;;;;;23.20;15.27;;;;;;;;;;5052556;28;20139;-47
2021/07/08 04:13:39;;;;;;;23.42;15.30;;;;;;;;;;5061257;28;20136;-49
2021/07/08 04:16:05;;;;;;;27.23;17.00;;;;;;;;;;5052967;28;20052;-47
2021/07/08 04:18:32;;;;;;;32.30;18.45;;;;;;;;;;5058565;28;20055;-46
2021/07/08 04:20:58;;;;;;;38.25;20.20;;;;;;;;;;5046993;28;20160;-49
2021/07/08 04:23:24;;;;;;;31.63;19.80;;;;;;;;;;5058641;28;20549;-47
2021/07/08 04:25:51;;;;;;;33.42;19.02;;;;;;;;;;5059599;28;20051;-47
2021/07/08 04:28:17;;;;;;;34.92;19.35;;;;;;;;;;5052562;28;20128;-47
2021/07/08 04:30:44;;;;;;;26.02;17.23;;;;;;;;;;5059275;28;20088;-48
2021/07/08 04:33:15;;;;;;;26.27;17.17;;;;;;;;;;5051055;28;20702;-46
2021/07/08 04:35:42;;;;;;;27.67;18.95;;;;;;;;;;5037875;28;20087;-47
2021/07/08 04:38:09;;;;;;;27.35;18.05;;;;;;;;;;5051748;28;20229;-48
2021/07/08 04:40:36;;;;;;;26.42;18.13;;;;;;;;;;5063703;28;20083;-47
2021/07/08 04:43:03;;;;;;;30.33;18.25;;;;;;;;;;5059368;28;20810;-47
2021/07/08 04:45:29;;;;;;;32.25;19.80;;;;;;;;;;5053475;28;20135;-49
2021/07/08 04:47:56;;;;;;;29.42;19.85;;;;;;;;;;5062504;28;20145;-48
2021/07/08 04:50:23;;;;;;;37.15;21.88;;;;;;;;;;5032255;28;20080;-47
2021/07/08 04:52:50;;;;;;;34.33;20.75;;;;;;;;;;5060508;28;20048;-48
2021/07/08 04:55:21;;;;;;;30.92;20.75;;;;;;;;;;5056466;28;20051;-47
2021/07/08 04:57:51;;;;;;;36.85;21.63;;;;;;;;;;5060032;28;20171;-47
2021/07/08 05:00:19;;;;;;;34.20;20.42;;;;;;;;;;5045461;28;20503;-48
2021/07/08 05:02:45;;;;;;;40.88;23.45;;;;;;;;;;5058793;28;20083;-51
2021/07/08 05:05:13;;;;;;;35.42;22.88;;;;;;;;;;5059303;28;20080;-48
2021/07/08 05:07:39;;;;;;;39.75;23.10;;;;;;;;;;5058467;28;20136;-47
2021/07/08 05:10:07;;;;;;;38.10;22.67;;;;;;;;;;5066183;28;20155;-49
2021/07/08 05:12:33;;;;;;;41.90;22.73;;;;;;;;;;5059594;28;20044;-47
2021/07/08 05:15:06;;;;;;;41.45;22.02;;;;;;;;;;5059736;28;20057;-48
2021/07/08 05:17:33;;;;;;;40.50;22.48;;;;;;;;;;5056109;28;20044;-47
2021/07/08 05:20:00;;;;;;;38.28;24.40;;;;;;;;;;5059935;28;20048;-47
2021/07/08 05:22:26;;;;;;;39.38;23.35;;;;;;;;;;5064297;28;20080;-48
2021/07/08 05:24:52;;;;;;;37.65;22.75;;;;;;;;;;5060247;28;20053;-47
2021/07/08 05:27:19;;;;;;;39.63;22.45;;;;;;;;;;5049677;28;21392;-47
2021/07/08 05:29:47;;;;;;;34.22;23.20;;;;;;;;;;5059358;28;20152;-48
2021/07/08 05:32:13;;;;;;;36.73;22.63;;;;;;;;;;5060653;28;20099;-47
2021/07/08 05:34:40;;;;;;;34.17;22.83;;;;;;;;;;5055826;28;20060;-48
2021/07/08 05:37:07;;;;;;;37.10;23.63;;;;;;;;;;5062765;28;20131;-47
2021/07/08 05:39:34;;;;;;;38.88;23.20;;;;;;;;;;5059589;28;20084;-49
2021/07/08 05:42:00;;;;;;;36.63;23.33;;;;;;;;;;5047169;28;20147;-51
2021/07/08 05:44:26;;;;;;;40.53;24.88;;;;;;;;;;5064422;28;20159;-49
2021/07/08 05:46:53;;;;;;;39.78;25.52;;;;;;;;;;5056551;28;20136;-50
2021/07/08 05:49:19;;;;;;;36.15;25.15;;;;;;;;;;5065614;28;20087;-48
2021/07/08 05:51:46;;;;;;;51.08;24.77;;;;;;;;;;5057347;28;20087;-49
2021/07/08 05:54:12;;;;;;;41.13;26.20;;;;;;;;;;5047669;28;20052;-49
2021/07/08 05:56:38;;;;;;;38.95;24.58;;;;;;;;;;5055518;28;20060;-48
2021/07/08 05:59:05;;;;;;;43.17;26.00;;;;;;;;;;5061201;28;20205;-47
2021/07/08 06:01:31;;;;;;;42.80;26.00;;;;;;;;;;5058719;28;20433;-48
2021/07/08 06:03:58;;;;;;;42.00;25.13;;;;;;;;;;5057206;28;20118;-48
2021/07/08 06:06:24;;;;;;;37.75;24.20;;;;;;;;;;5066377;28;20132;-48
2021/07/08 06:08:50;;;;;;;39.55;24.67;;;;;;;;;;5059640;28;20135;-47
2021/07/08 06:11:17;;;;;;;42.95;24.83;;;;;;;;;;5062346;28;20185;-46
2021/07/08 06:13:43;;;;;;;38.70;25.00;;;;;;;;;;5053999;28;20127;-48
2021/07/08 06:16:10;;;;;;;37.55;25.83;;;;;;;;;;5040661;28;20124;-46
2021/07/08 06:18:36;;;;;;;37.20;24.23;;;;;;;;;;5063608;28;20446;-48
2021/07/08 06:21:06;;;;;;;39.70;24.13;;;;;;;;;;5057308;28;20106;-50
2021/07/08 06:23:32;;;;;;;38.30;24.33;;;;;;;;;;5061161;28;20082;-47
2021/07/08 06:25:59;;;;;;;38.25;24.27;;;;;;;;;;5055913;28;20147;-49
2021/07/08 06:28:25;;;;;;;46.22;24.23;;;;;;;;;;5055070;28;20049;-48
2021/07/08 06:30:52;;;;;;;42.47;24.33;;;;;;;;;;5053774;28;20200;-48
2021/07/08 06:33:18;;;;;;;35.47;24.80;;;;;;;;;;5064054;28;20055;-48
2021/07/08 06:35:46;;;;;;;40.15;24.67;;;;;;;;;;5047940;28;20528;-48
2021/07/08 06:38:12;;;;;;;37.67;22.67;;;;;;;;;;5065316;28;20037;-48
2021/07/08 06:40:39;;;;;;;40.60;22.85;;;;;;;;;;5055185;28;20309;-48
2021/07/08 06:43:05;;;;;;;41.30;24.40;;;;;;;;;;5029061;28;20179;-47
2021/07/08 06:45:35;;;;;;;40.63;25.45;;;;;;;;;;5065582;28;20076;-47
2021/07/08 06:48:03;;;;;;;39.42;23.45;;;;;;;;;;5059705;28;20140;-48
2021/07/08 06:50:30;;;;;;;41.72;24.33;;;;;;;;;;5044435;28;20476;-47
2021/07/08 06:52:59;;;;;;;41.22;23.48;;;;;;;;;;5035207;28;20663;-49
2021/07/08 06:55:31;;;;;;;38.50;24.23;;;;;;;;;;5046889;28;20442;-50
2021/07/08 06:57:58;;;;;;;39.40;24.90;;;;;;;;;;5048683;28;20190;-48
2021/07/08 07:00:28;;;;;;;39.03;24.42;;;;;;;;;;5053725;28;20087;-49
2021/07/08 07:02:56;;;;;;;37.45;21.73;;;;;;;;;;5057782;28;20626;-50
2021/07/08 07:05:23;;;;;;;36.78;22.02;;;;;;;;;;5047052;28;20143;-49
2021/07/08 07:07:50;;;;;;;36.40;22.70;;;;;;;;;;5053864;28;20056;-49
2021/07/08 07:10:17;;;;;;;36.25;22.98;;;;;;;;;;5027514;28;20139;-50
2021/07/08 07:12:45;;;;;;;39.42;22.83;;;;;;;;;;5047599;28;20568;-49
2021/07/08 07:15:15;;;;;;;37.42;22.05;;;;;;;;;;5045370;28;20135;-49
2021/07/08 07:17:42;;;;;;;37.08;24.10;;;;;;;;;;5054405;28;20136;-51
2021/07/08 07:20:09;;;;;;;39.72;22.67;;;;;;;;;;5045489;28;20077;-49
2021/07/08 07:22:37;;;;;;;35.45;22.23;;;;;;;;;;5035399;28;20045;-49
2021/07/08 07:25:06;;;;;;;40.55;21.77;;;;;;;;;;5041616;28;20044;-49
2021/07/08 07:27:33;;;;;;;34.10;21.15;;;;;;;;;;5055039;28;20156;-51
2021/07/08 07:30:04;;;;;;;33.80;22.55;;;;;;;;;;5055640;28;20048;-50
2021/07/08 07:32:31;;;;;;;36.85;20.67;;;;;;;;;;5038606;28;20143;-51
2021/07/08 07:34:59;;;;;;;32.75;20.85;;;;;;;;;;5054328;28;20507;-49
2021/07/08 07:37:25;;;;;;;32.93;20.73;;;;;;;;;;5048400;28;20052;-49
2021/07/08 07:39:52;;;;;;;31.20;19.13;;;;;;;;;;5049787;28;20844;-48
2021/07/08 07:42:19;;;;;;;37.38;21.30;;;;;;;;;;5049278;28;20132;-50
2021/07/08 07:44:47;;;;;;;34.97;19.40;;;;;;;;;;5047143;28;20087;-49
2021/07/08 07:47:16;;;;;;;35.95;21.35;;;;;;;;;;5058543;28;20084;-49
2021/07/08 07:49:43;;;;;;;33.97;19.92;;;;;;;;;;5055574;28;20910;-48
2021/07/08 07:52:13;;;;;;;32.03;19.42;;;;;;;;;;5054849;28;20082;-47
2021/07/08 07:54:40;;;;;;;35.25;19.27;;;;;;;;;;5045937;28;20140;-49
2021/07/08 07:57:08;;;;;;;38.85;19.83;;;;;;;;;;5051789;28;20084;-49
2021/07/08 07:59:34;;;;;;;;;;;;;;;;;;5050381;28;20041;-49
2021/07/08 08:02:02;;;;;;;35.15;20.13;;;;;;;;;;5043098;28;20018;-48
2021/07/08 08:04:30;;;;;;;35.50;19.77;;;;;;;;;;5046354;28;20052;-48
2021/07/08 08:09:43;;;;;;;30.35;18.33;;;;;;;;;;5051374;28;20063;-47
2021/07/08 08:12:09;;;;;;;33.00;19.73;;;;;;;;;;5050591;28;20595;-48
2021/07/08 08:14:36;;;;;;;35.58;20.40;;;;;;;;;;5042407;28;20127;-50
2021/07/08 08:17:03;;;;;;;27.48;17.83;;;;;;;;;;5049302;28;20053;-48
2021/07/08 08:19:38;;;;;;;26.38;16.58;;;;;;;;;;5052339;28;20120;-48
2021/07/08 08:22:06;;;;;;;24.47;15.90;;;;;;;;;;5053389;28;20741;-49
2021/07/08 08:24:33;;;;;;;24.13;15.20;;;;;;;;;;5044473;28;20080;-50
2021/07/08 08:27:01;;;;;;;28.33;16.27;;;;;;;;;;5051792;28;20059;-50
2021/07/08 08:29:27;;;;;;;29.50;15.75;;;;;;;;;;5031156;28;20045;-52
2021/07/08 08:31:54;;;;;;;26.45;15.73;;;;;;;;;;5052887;28;20132;-49
2021/07/08 08:34:20;;;;;;;25.33;14.82;;;;;;;;;;5052929;28;20101;-49
2021/07/08 08:36:46;;;;;;;25.35;14.32;;;;;;;;;;5055975;28;20500;-48
2021/07/08 08:39:13;;;;;;;24.08;13.95;;;;;;;;;;5059588;28;20091;-48
2021/07/08 08:41:39;;;;;;;28.92;14.13;;;;;;;;;;5042675;28;20132;-48
2021/07/08 08:44:06;;;;;;;26.23;13.45;;;;;;;;;;5053577;28;20084;-49
2021/07/08 08:46:34;;;;;;;16.75;10.82;;;;;;;;;;5057950;28;20045;-48
2021/07/08 08:49:04;;;;;;;15.97;12.23;;;;;;;;;;5067857;28;20079;-49
2021/07/08 08:51:30;;;;;;;18.80;11.82;;;;;;;;;;5060328;28;20143;-49
2021/07/08 08:53:57;;;;;;;17.25;11.85;;;;;;;;;;5054377;28;20154;-49
2021/07/08 08:56:24;;;;;;;18.38;11.90;;;;;;;;;;5044546;28;20083;-49
2021/07/08 08:58:50;;;;;;;22.08;12.10;;;;;;;;;;5053940;28;20075;-48
2021/07/08 09:01:17;;;;;;;21.15;11.80;;;;;;;;;;5054873;28;20174;-48
2021/07/08 09:03:45;;;;;;;22.35;12.90;;;;;;;;;;5054560;28;20145;-52
2021/07/08 09:06:11;;;;;;;;;;;;;;;;;;5054413;28;20135;-49
2021/07/08 09:08:40;;;;;;;20.05;11.80;;;;;;;;;;5049539;28;19929;-52
2021/07/08 09:11:09;;;;;;;20.38;10.95;;;;;;;;;;5052731;28;20132;-49
2021/07/08 09:13:42;;;;;;;18.10;10.95;;;;;;;;;;5054074;28;20072;-50
2021/07/08 09:16:28;;;;;;;19.80;12.50;;;;;;;;;;5056829;28;20630;-48
2021/07/08 09:19:04;;;;;;;19.63;11.95;;;;;;;;;;5053085;28;20536;-49
2021/07/08 09:21:31;;;;;;;20.02;11.00;;;;;;;;;;5032499;28;20139;-49
2021/07/08 09:24:01;;;;;;;18.65;10.63;;;;;;;;;;5055304;28;20135;-52
2021/07/08 09:26:27;;;;;;;16.98;9.85;;;;;;;;;;5057816;28;20153;-48
2021/07/08 09:29:06;;;;;;;14.00;9.75;;;;;;;;;;5056164;28;20476;-52
2021/07/08 09:31:33;;;;;;;16.45;10.02;;;;;;;;;;5050096;28;20084;-49
2021/07/08 09:34:19;;;;;;;19.60;10.55;;;;;;;;;;5056312;28;20048;-48
2021/07/08 09:36:48;;;;;;;18.90;11.00;;;;;;;;;;5042201;28;20067;-49
2021/07/08 09:39:15;;;;;;;20.85;11.00;;;;;;;;;;5059648;28;20453;-48
2021/07/08 09:41:45;;;;;;;16.33;9.63;;;;;;;;;;5049447;28;20048;-48
2021/07/08 09:44:18;;;;;;;15.60;10.10;;;;;;;;;;5055154;28;20137;-48
2021/07/08 09:46:44;;;;;;;15.25;9.30;;;;;;;;;;5055973;28;20080;-49
2021/07/08 09:49:14;;;;;;;18.80;9.32;;;;;;;;;;5061031;28;20484;-47
2021/07/08 09:51:44;;;;;;;12.70;8.18;;;;;;;;;;5064986;28;20080;-49
2021/07/08 09:54:14;;;;;;;15.82;9.02;;;;;;;;;;5023991;28;20135;-49
2021/07/08 09:56:49;;;;;;;12.38;8.27;;;;;;;;;;5057129;28;20575;-49
2021/07/08 09:59:35;;;;;;;17.13;9.55;;;;;;;;;;5049188;28;20232;-48
2021/07/08 10:02:02;;;;;;;16.13;9.30;;;;;;;;;;5052488;28;20052;-49
2021/07/08 10:04:29;;;;;;;15.70;8.93;;;;;;;;;;5047059;28;20420;-48
2021/07/08 10:06:55;;;;;;;17.92;8.75;;;;;;;;;;5057652;28;20049;-48
2021/07/08 10:09:23;;;;;;;13.20;8.38;;;;;;;;;;5039056;28;20137;-48
2021/07/08 10:11:55;;;;;;;15.23;7.95;;;;;;;;;;5060548;28;20165;-47
2021/07/08 10:14:22;;;;;;;16.63;8.10;;;;;;;;;;5053823;28;20087;-48
2021/07/08 10:16:50;;;;;;;14.10;8.13;;;;;;;;;;5031667;28;20771;-47
2021/07/08 10:19:16;;;;;;;;;;;;;;;;;;5064969;28;20040;-48
2021/07/08 10:21:43;;;;;;;13.98;8.38;;;;;;;;;;5049873;28;20015;-48
2021/07/08 10:24:10;;;;;;;14.13;8.55;;;;;;;;;;5033013;28;20516;-49
2021/07/08 10:26:37;;;;;;;12.77;7.32;;;;;;;;;;5032914;28;20128;-49
2021/07/08 10:29:03;;;;;;;15.80;7.75;;;;;;;;;;5030839;28;20936;-47
2021/07/08 10:31:30;;;;;;;12.43;7.70;;;;;;;;;;5022502;28;20154;-47
2021/07/08 10:34:10;;;;;;;15.27;7.35;;;;;;;;;;5017048;28;20088;-49
2021/07/08 10:36:37;;;;;;;12.35;7.10;;;;;;;;;;5036051;28;20080;-48
2021/07/08 10:39:08;;;;;;;18.33;8.93;;;;;;;;;;5035228;28;20051;-49
2021/07/08 10:41:34;;;;;;;15.18;7.25;;;;;;;;;;5035043;28;20119;-48
2021/07/08 10:44:01;;;;;;;16.42;8.15;;;;;;;;;;5027146;28;20580;-48
2021/07/08 10:46:47;;;;;;;14.07;7.95;;;;;;;;;;5043760;28;20045;-47
2021/07/08 10:49:14;;;;;;;14.25;8.35;;;;;;;;;;5039059;28;20136;-49
2021/07/08 10:51:42;;;;;;;19.17;7.75;;;;;;;;;;5038331;28;20175;-49
2021/07/08 10:54:28;;;;;;;14.70;7.70;;;;;;;;;;5026021;28;20041;-50
2021/07/08 10:56:56;;;;;;;14.82;7.47;;;;;;;;;;5033171;28;20080;-49
2021/07/08 10:59:23;;;;;;;14.90;8.20;;;;;;;;;;5035205;28;20132;-48
2021/07/08 11:01:54;;;;;;;13.32;6.88;;;;;;;;;;5023757;28;20135;-49
2021/07/08 11:04:39;;;;;;;14.38;7.72;;;;;;;;;;5035515;28;20404;-50
2021/07/08 11:07:16;;;;;;;14.82;7.90;;;;;;;;;;5031762;28;20056;-49
2021/07/08 11:09:56;;;;;;;14.32;7.00;;;;;;;;;;5041122;28;20048;-49
2021/07/08 11:12:27;;;;;;;11.65;7.22;;;;;;;;;;5032567;28;20139;-50
2021/07/08 11:14:53;;;;;;;12.63;6.68;;;;;;;;;;5038199;28;20497;-50
2021/07/08 11:17:20;;;;;;;11.85;5.35;;;;;;;;;;5033430;28;20144;-49
2021/07/08 11:19:48;;;;;;;12.47;5.60;;;;;;;;;;5034527;28;20045;-50
2021/07/08 11:22:20;;;;;;;9.20;5.00;;;;;;;;;;5024706;28;20154;-50
2021/07/08 11:24:48;;;;;;;13.35;5.95;;;;;;;;;;5026500;28;20131;-50
2021/07/08 11:27:23;;;;;;;9.98;5.50;;;;;;;;;;5031949;28;20053;-49
2021/07/08 11:29:50;;;;;;;8.30;5.55;;;;;;;;;;5037436;28;20151;-48
2021/07/08 11:32:19;;;;;;;13.07;7.57;;;;;;;;;;5043496;28;20076;-49
2021/07/08 11:34:53;;;;;;;11.45;6.03;;;;;;;;;;5031817;28;20115;-49
2021/07/08 11:37:22;;;;;;;11.63;6.32;;;;;;;;;;5036595;28;20052;-47
2021/07/08 11:39:52;;;;;;;14.93;6.07;;;;;;;;;;5037817;28;20139;-48
2021/07/08 11:42:19;;;;;;;11.13;6.20;;;;;;;;;;5049051;28;20144;-47
2021/07/08 11:44:46;;;;;;;9.73;5.37;;;;;;;;;;5025987;28;20141;-48
2021/07/08 11:47:12;;;;;;;13.00;6.13;;;;;;;;;;5045185;28;20289;-48
2021/07/08 11:49:39;;;;;;;12.85;6.40;;;;;;;;;;5041578;28;20140;-48
2021/07/08 11:52:27;;;;;;;11.13;5.97;;;;;;;;;;5032852;28;20095;-48
2021/07/08 11:54:57;;;;;;;8.82;5.75;;;;;;;;;;5036101;28;20148;-50
2021/07/08 11:57:27;;;;;;;11.00;6.47;;;;;;;;;;5038760;28;20053;-47
2021/07/08 11:59:54;;;;;;;10.20;6.60;;;;;;;;;;5031724;28;20046;-49
2021/07/08 12:02:36;;;;;;;12.23;5.85;;;;;;;;;;5030260;28;20049;-52
2021/07/08 12:05:13;;;;;;;12.20;6.25;;;;;;;;;;5037232;28;20144;-50
2021/07/08 12:07:43;;;;;;;14.60;5.63;;;;;;;;;;5019846;28;20050;-50
2021/07/08 12:10:11;;;;;;;12.15;6.18;;;;;;;;;;5029929;28;20144;-49
2021/07/08 12:12:38;;;;;;;16.05;5.90;;;;;;;;;;5024597;28;20140;-51
2021/07/08 12:15:05;;;;;;;12.35;5.60;;;;;;;;;;5027446;28;20849;-49
2021/07/08 12:17:31;;;;;;;13.13;5.68;;;;;;;;;;5037088;28;20152;-51
2021/07/08 12:20:08;;;;;;;10.38;6.00;;;;;;;;;;5028031;28;20607;-51
2021/07/08 12:22:50;;;;;;;14.18;6.35;;;;;;;;;;5037828;28;20049;-50
2021/07/08 12:25:17;;;;;;;10.18;5.75;;;;;;;;;;5037907;28;20543;-51
2021/07/08 12:27:43;;;;;;;13.30;5.95;;;;;;;;;;5044302;28;20076;-50
2021/07/08 12:30:39;;;;;;;15.88;5.78;;;;;;;;;;5035355;28;20148;-50
2021/07/08 12:33:10;;;;;;;9.60;5.78;;;;;;;;;;5014200;28;20102;-51
2021/07/08 12:35:40;;;;;;;11.48;5.90;;;;;;;;;;5036819;28;20107;-51
2021/07/08 12:38:08;;;;;;;13.05;5.75;;;;;;;;;;5025014;28;20076;-49
2021/07/08 12:40:34;;;;;;;9.05;4.85;;;;;;;;;;5030470;28;20060;-51
2021/07/08 12:43:19;;;;;;;8.05;5.32;;;;;;;;;;5029091;28;20770;-50
2021/07/08 12:45:45;;;;;;;9.05;4.97;;;;;;;;;;5032365;28;20139;-50
2021/07/08 12:48:12;;;;;;;9.90;5.20;;;;;;;;;;5029260;28;20077;-48
2021/07/08 12:50:43;;;;;;;9.75;5.47;;;;;;;;;;5035255;28;20460;-48
2021/07/08 12:53:13;;;;;;;11.23;5.70;;;;;;;;;;5029229;28;20072;-50
2021/07/08 12:55:48;;;;;;;12.35;5.68;;;;;;;;;;5035991;28;20049;-50
2021/07/08 12:58:22;;;;;;;10.82;5.00;;;;;;;;;;5027904;28;20557;-49
2021/07/08 13:00:50;;;;;;;10.20;5.47;;;;;;;;;;5034905;28;20081;-50
2021/07/08 13:03:19;;;;;;;9.82;5.22;;;;;;;;;;5027046;28;20142;-50
2021/07/08 13:05:46;;;;;;;10.93;5.10;;;;;;;;;;5035181;28;20049;-51
2021/07/08 13:08:14;;;;;;;8.82;5.13;;;;;;;;;;5028922;28;20084;-49
2021/07/08 13:11:05;;;;;;;9.35;5.32;;;;;;;;;;5027003;28;20041;-50
2021/07/08 13:13:32;;;;;;;12.38;5.93;;;;;;;;;;5046368;28;20127;-50
2021/07/08 13:15:59;;;;;;;9.82;6.28;;;;;;;;;;5033779;28;20460;-51
2021/07/08 13:18:33;;;;;;;11.15;5.93;;;;;;;;;;5035634;28;20050;-54
2021/07/08 13:21:10;;;;;;;12.32;6.45;;;;;;;;;;5029411;28;20147;-52
2021/07/08 13:23:37;;;;;;;10.63;6.43;;;;;;;;;;5030971;28;20049;-48
2021/07/08 13:26:10;;;;;;;10.53;5.40;;;;;;;;;;5027714;28;20068;-50
2021/07/08 13:28:37;;;;;;;9.95;6.28;;;;;;;;;;5033886;28;20088;-50
2021/07/08 13:31:10;;;;;;;12.95;5.47;;;;;;;;;;5028037;28;20768;-49
2021/07/08 13:33:39;;;;;;;13.25;5.20;;;;;;;;;;5040976;28;20076;-50
2021/07/08 13:36:11;;;;;;;9.52;5.20;;;;;;;;;;5034835;28;20574;-50
2021/07/08 13:38:38;;;;;;;7.80;5.22;;;;;;;;;;5008636;28;20535;-49
2021/07/08 13:41:11;;;;;;;8.30;5.22;;;;;;;;;;5037729;28;20080;-48
2021/07/08 13:43:45;;;;;;;8.80;5.15;;;;;;;;;;5028172;28;20096;-49
2021/07/08 13:46:16;;;;;;;10.35;5.75;;;;;;;;;;5043432;28;20152;-48
2021/07/08 13:48:43;;;;;;;10.07;5.03;;;;;;;;;;5036334;28;20061;-49
2021/07/08 13:51:10;;;;;;;9.00;4.90;;;;;;;;;;5033916;28;20163;-48
2021/07/08 13:53:37;;;;;;;8.40;5.30;;;;;;;;;;5033712;28;20076;-48
2021/07/08 13:56:05;;;;;;;8.55;4.72;;;;;;;;;;5033466;28;20049;-50
2021/07/08 13:58:31;;;;;;;8.43;4.50;;;;;;;;;;5039081;28;20862;-49
2021/07/08 14:00:57;;;;;;;7.45;4.40;;;;;;;;;;5029416;28;20069;-49
2021/07/08 14:03:24;;;;;;;7.45;4.43;;;;;;;;;;5031139;28;20554;-49
2021/07/08 14:05:50;;;;;;;7.00;3.88;;;;;;;;;;5028208;28;20151;-48
2021/07/08 14:08:18;;;;;;;6.47;4.00;;;;;;;;;;5041504;28;20472;-50
2021/07/08 14:10:45;;;;;;;6.13;3.83;;;;;;;;;;5034935;28;20084;-49
2021/07/08 14:13:11;;;;;;;5.75;3.80;;;;;;;;;;5035456;28;20480;-52
2021/07/08 14:15:38;;;;;;;8.07;4.28;;;;;;;;;;5029654;28;20092;-48
2021/07/08 14:18:05;;;;;;;5.50;3.60;;;;;;;;;;5020382;28;20543;-49
2021/07/08 14:20:31;;;;;;;6.03;3.63;;;;;;;;;;5030506;28;20126;-51
2021/07/08 14:22:57;;;;;;;7.28;3.78;;;;;;;;;;5026810;28;20148;-49
2021/07/08 14:25:24;;;;;;;4.20;3.15;;;;;;;;;;5030051;28;20113;-50
2021/07/08 14:27:50;;;;;;;5.13;3.50;;;;;;;;;;5020387;28;20084;-51
2021/07/08 14:30:17;;;;;;;8.57;3.80;;;;;;;;;;5036296;28;20052;-52
2021/07/08 14:32:44;;;;;;;7.82;3.83;;;;;;;;;;5025330;28;20570;-51